createdAt,value
2022-09-25T00:01:27.157Z,21.83
2022-09-25T00:03:55.287Z,21.58
2022-09-25T00:06:25.870Z,23.08
2022-09-25T00:08:54.552Z,24.40
2022-09-25T00:11:34.401Z,23.27
2022-09-25T00:14:10.487Z,25.98
2022-09-25T00:16:38.640Z,25.23
2022-09-25T00:19:25.115Z,23.90
2022-09-25T00:21:53.965Z,23.63
2022-09-25T00:24:21.928Z,22.88
2022-09-25T00:26:50.189Z,24.50
2022-09-25T00:29:20.345Z,22.23
2022-09-25T00:31:48.465Z,23.13
2022-09-25T00:34:16.357Z,22.02
2022-09-25T00:36:44.241Z,28.15
2022-09-25T00:39:12.134Z,23.63
2022-09-25T00:41:40.412Z,21.70
2022-09-25T00:44:46.822Z,25.80
2022-09-25T00:47:20.383Z,21.83
2022-09-25T00:49:48.885Z,24.35
2022-09-25T00:52:16.956Z,24.27
2022-09-25T00:54:54.676Z,20.92
2022-09-25T00:57:27.723Z,25.20
2022-09-25T00:59:59.397Z,28.50
2022-09-25T01:02:37.895Z,23.10
2022-09-25T01:05:09.811Z,22.42
2022-09-25T01:07:41.393Z,21.25
2022-09-25T01:12:41.679Z,24.40
2022-09-25T01:15:14.952Z,20.95
2022-09-25T01:17:51.566Z,22.05
2022-09-25T01:20:30.567Z,21.60
2022-09-25T01:23:21.310Z,21.33
2022-09-25T01:26:16.651Z,25.20
2022-09-25T01:28:57.675Z,22.88
2022-09-25T01:31:39.422Z,25.60
2022-09-25T01:34:34.176Z,26.33
2022-09-25T01:37:27.318Z,30.98
2022-09-25T01:40:25.199Z,29.65
2022-09-25T01:42:58.292Z,25.52
2022-09-25T01:45:42.910Z,27.83
2022-09-25T01:48:14.285Z,26.25
2022-09-25T01:51:25.015Z,25.10
2022-09-25T01:53:57.892Z,23.77
2022-09-25T01:56:43.971Z,23.27
2022-09-25T01:59:19.875Z,24.02
2022-09-25T02:01:53.743Z,23.90
2022-09-25T02:04:53.168Z,26.23
2022-09-25T02:07:26.143Z,23.98
2022-09-25T02:09:57.677Z,23.73
2022-09-25T02:12:35.393Z,25.23
2022-09-25T02:15:14.544Z,28.88
2022-09-25T02:18:08.578Z,28.80
2022-09-25T02:20:38.083Z,31.60
2022-09-25T02:23:12.357Z,31.58
2022-09-25T02:26:06.654Z,29.60
2022-09-25T02:28:37.409Z,27.77
2022-09-25T02:31:09.067Z,28.23
2022-09-25T02:33:40.365Z,25.75
2022-09-25T02:36:15.599Z,27.48
2022-09-25T02:38:43.487Z,31.77
2022-09-25T02:41:37.016Z,26.20
2022-09-25T02:44:11.080Z,27.98
2022-09-25T02:47:16.402Z,26.00
2022-09-25T02:49:50.098Z,25.27
2022-09-25T02:52:28.679Z,23.73
2022-09-25T02:55:12.778Z,31.77
2022-09-25T02:57:54.149Z,27.52
2022-09-25T03:00:24.588Z,24.65
2022-09-25T03:03:09.264Z,27.35
2022-09-25T03:05:38.581Z,27.65
2022-09-25T03:08:26.054Z,28.02
2022-09-25T03:10:54.763Z,28.50
2022-09-25T03:13:33.208Z,27.05
2022-09-25T03:16:03.040Z,29.45
2022-09-25T03:18:32.381Z,30.15
2022-09-25T03:21:00.362Z,28.60
2022-09-25T03:23:28.206Z,30.20
2022-09-25T03:25:56.579Z,28.70
2022-09-25T03:28:24.993Z,27.60
2022-09-25T03:30:59.966Z,27.98
2022-09-25T03:33:30.177Z,29.05
2022-09-25T03:36:03.099Z,27.48
2022-09-25T03:38:31.023Z,27.05
2022-09-25T03:40:59.108Z,28.67
2022-09-25T03:43:34.732Z,29.30
2022-09-25T03:46:02.634Z,30.05
2022-09-25T03:48:31.229Z,28.75
2022-09-25T03:50:59.455Z,30.10
2022-09-25T03:53:27.669Z,31.17
2022-09-25T03:55:55.733Z,29.02
2022-09-25T03:58:23.780Z,30.23
2022-09-25T04:00:51.750Z,29.48
2022-09-25T04:03:20.427Z,30.63
2022-09-25T04:05:48.296Z,30.55
2022-09-25T04:08:17.236Z,29.98
2022-09-25T04:10:45.927Z,28.60
2022-09-25T04:13:13.908Z,33.30
2022-09-25T04:15:43.859Z,31.90
2022-09-25T04:18:11.807Z,32.03
2022-09-25T04:20:39.803Z,31.73
2022-09-25T04:23:07.727Z,30.30
2022-09-25T04:25:36.906Z,31.98
2022-09-25T04:28:05.732Z,30.15
2022-09-25T04:30:34.342Z,32.67
2022-09-25T04:33:21.481Z,30.73
2022-09-25T04:35:49.866Z,28.30
2022-09-25T04:38:17.723Z,31.75
2022-09-25T04:40:46.967Z,35.60
2022-09-25T04:43:15.416Z,32.60
2022-09-25T04:45:43.394Z,33.28
2022-09-25T04:48:11.288Z,33.40
2022-09-25T04:50:39.182Z,34.67
2022-09-25T04:53:07.103Z,32.35
2022-09-25T04:55:35.007Z,31.30
2022-09-25T04:58:03.027Z,35.10
2022-09-25T05:00:33.865Z,34.95
2022-09-25T05:03:05.019Z,38.60
2022-09-25T05:05:36.335Z,35.25
2022-09-25T05:08:08.563Z,34.05
2022-09-25T05:10:36.676Z,35.03
2022-09-25T05:13:05.434Z,34.65
2022-09-25T05:15:34.881Z,35.60
2022-09-25T05:18:07.081Z,35.22
2022-09-25T05:20:38.132Z,36.72
2022-09-25T05:23:06.037Z,38.20
2022-09-25T05:25:34.506Z,34.20
2022-09-25T05:28:04.143Z,34.80
2022-09-25T05:30:34.038Z,38.45
2022-09-25T05:33:02.107Z,30.70
2022-09-25T05:35:32.287Z,37.65
2022-09-25T05:38:00.495Z,32.72
2022-09-25T05:40:28.546Z,35.13
2022-09-25T05:42:56.436Z,32.92
2022-09-25T05:45:25.203Z,34.95
2022-09-25T05:48:06.974Z,30.60
2022-09-25T05:50:35.429Z,31.92
2022-09-25T05:53:05.794Z,29.45
2022-09-25T05:55:33.843Z,31.95
2022-09-25T05:58:05.807Z,33.20
2022-09-25T06:00:34.502Z,29.02
2022-09-25T06:03:03.590Z,29.83
2022-09-25T06:05:31.516Z,32.30
2022-09-25T06:07:59.632Z,29.23
2022-09-25T06:10:28.243Z,30.85
2022-09-25T06:13:03.732Z,32.50
2022-09-25T06:15:37.878Z,37.15
2022-09-25T06:18:06.937Z,32.45
2022-09-25T06:20:34.792Z,35.22
2022-09-25T06:23:02.990Z,37.22
2022-09-25T06:25:33.624Z,38.60
2022-09-25T06:28:02.366Z,35.78
2022-09-25T06:30:35.362Z,37.00
2022-09-25T06:33:08.150Z,39.10
2022-09-25T06:35:36.512Z,35.47
2022-09-25T06:38:06.048Z,37.40
2022-09-25T06:40:34.751Z,40.65
2022-09-25T06:43:04.699Z,38.72
2022-09-25T06:45:37.040Z,40.70
2022-09-25T06:48:18.180Z,40.80
2022-09-25T06:50:56.466Z,40.17
2022-09-25T06:53:30.084Z,41.38
2022-09-25T06:56:00.110Z,41.72
2022-09-25T06:58:29.968Z,41.83
2022-09-25T07:00:58.250Z,40.45
2022-09-25T07:03:44.816Z,39.75
2022-09-25T07:06:15.702Z,41.58
2022-09-25T07:08:49.210Z,40.47
2022-09-25T07:11:23.176Z,43.33
2022-09-25T07:13:53.428Z,43.58
2022-09-25T07:16:23.049Z,46.40
2022-09-25T07:18:52.038Z,46.42
2022-09-25T07:21:22.365Z,44.47
2022-09-25T07:23:51.380Z,43.65
2022-09-25T07:26:24.477Z,43.28
2022-09-25T07:28:59.879Z,39.70
2022-09-25T07:31:30.349Z,42.97
2022-09-25T07:34:01.287Z,44.90
2022-09-25T07:36:29.737Z,41.58
2022-09-25T07:38:57.581Z,41.17
2022-09-25T07:41:26.263Z,44.10
2022-09-25T07:44:06.318Z,41.13
2022-09-25T07:46:45.295Z,38.22
2022-09-25T07:49:13.463Z,42.85
2022-09-25T07:51:41.336Z,35.53
2022-09-25T07:54:09.307Z,36.10
2022-09-25T07:56:39.160Z,37.03
2022-09-25T07:59:07.156Z,33.15
2022-09-25T08:01:39.531Z,36.42
2022-09-25T08:04:10.726Z,35.13
2022-09-25T08:06:39.612Z,33.95
2022-09-25T08:09:10.547Z,35.03
2022-09-25T08:11:39.227Z,31.75
2022-09-25T08:14:07.253Z,34.53
2022-09-25T08:16:38.718Z,33.33
2022-09-25T08:21:37.050Z,32.33
2022-09-25T08:24:08.085Z,32.13
2022-09-25T08:26:36.068Z,32.40
2022-09-25T08:29:05.940Z,30.88
2022-09-25T08:31:34.208Z,33.65
2022-09-25T08:34:21.110Z,31.35
2022-09-25T08:36:52.009Z,28.60
2022-09-25T08:39:19.931Z,27.45
2022-09-25T08:41:51.671Z,32.92
2022-09-25T08:44:56.934Z,31.35
2022-09-25T08:47:49.335Z,31.15
2022-09-25T08:50:23.575Z,29.48
2022-09-25T08:53:04.240Z,32.35
2022-09-25T08:55:55.903Z,28.70
2022-09-25T09:01:07.419Z,29.38
2022-09-25T09:04:08.169Z,30.33
2022-09-25T09:06:39.094Z,29.15
2022-09-25T09:09:18.888Z,30.67
2022-09-25T09:11:58.894Z,27.40
2022-09-25T09:14:31.688Z,28.15
2022-09-25T09:17:25.133Z,26.88
2022-09-25T09:19:59.684Z,29.25
2022-09-25T09:22:45.485Z,30.45
2022-09-25T09:25:32.827Z,24.20
2022-09-25T09:28:12.595Z,24.10
2022-09-25T09:30:58.785Z,27.20
2022-09-25T09:33:58.991Z,26.45
2022-09-25T09:36:39.554Z,26.98
2022-09-25T09:39:25.039Z,22.45
2022-09-25T09:42:05.903Z,21.35
2022-09-25T09:44:45.983Z,21.48
2022-09-25T09:47:44.491Z,18.23
2022-09-25T09:50:41.911Z,19.17
2022-09-25T09:53:41.399Z,17.15
2022-09-25T09:56:16.355Z,17.45
2022-09-25T09:58:52.528Z,17.00
2022-09-25T10:06:51.204Z,15.40
2022-09-25T10:09:19.608Z,14.57
2022-09-25T10:11:57.149Z,14.85
2022-09-25T10:14:33.226Z,14.38
2022-09-25T10:17:03.144Z,14.85
2022-09-25T10:19:46.572Z,14.02
2022-09-25T10:22:21.793Z,15.60
2022-09-25T10:24:53.999Z,13.85
2022-09-25T10:27:21.889Z,13.88
2022-09-25T10:30:13.167Z,17.77
2022-09-25T10:32:58.554Z,13.63
2022-09-25T10:35:31.575Z,14.52
2022-09-25T10:38:02.379Z,15.23
2022-09-25T10:40:40.347Z,14.18
2022-09-25T10:43:21.727Z,14.02
2022-09-25T10:45:50.297Z,15.32
2022-09-25T10:48:55.877Z,14.10
2022-09-25T10:51:24.903Z,12.07
2022-09-25T10:54:01.129Z,12.55
2022-09-25T10:56:39.153Z,12.43
2022-09-25T10:59:22.190Z,12.23
2022-09-25T11:01:52.310Z,11.93
2022-09-25T11:04:26.020Z,12.35
2022-09-25T11:07:02.297Z,10.43
2022-09-25T11:09:33.559Z,8.45
2022-09-25T11:14:56.411Z,9.00
2022-09-25T11:17:39.066Z,7.35
2022-09-25T11:20:33.066Z,8.43
2022-09-25T11:23:30.285Z,8.10
2022-09-25T11:26:21.589Z,7.20
2022-09-25T11:29:05.618Z,7.57
2022-09-25T11:31:55.595Z,4.97
2022-09-25T11:34:41.610Z,6.43
2022-09-25T11:37:55.815Z,11.18
2022-09-25T11:41:13.671Z,9.63
2022-09-25T11:44:09.890Z,8.40
2022-09-25T11:46:52.019Z,10.15
2022-09-25T11:49:25.423Z,6.05
2022-09-25T11:52:30.132Z,6.53
2022-09-25T11:55:12.525Z,7.03
2022-09-25T11:58:29.558Z,7.90
2022-09-25T12:01:12.024Z,9.93
2022-09-25T12:04:07.412Z,8.25
2022-09-25T12:07:06.825Z,6.18
2022-09-25T12:10:04.668Z,5.82
2022-09-25T12:13:06.230Z,7.70
2022-09-25T12:15:52.446Z,4.53
2022-09-25T12:18:28.394Z,4.78
2022-09-25T12:21:13.602Z,5.40
2022-09-25T12:24:00.442Z,5.20
2022-09-25T12:26:45.234Z,10.10
2022-09-25T12:29:27.195Z,3.17
2022-09-25T12:32:14.221Z,5.38
2022-09-25T12:35:00.198Z,4.00
2022-09-25T12:37:47.758Z,2.90
2022-09-25T12:40:33.607Z,4.68
2022-09-25T12:43:12.306Z,3.75
2022-09-25T12:45:46.557Z,3.55
2022-09-25T12:48:20.564Z,5.47
2022-09-25T12:51:19.922Z,6.15
2022-09-25T12:53:59.481Z,4.88
2022-09-25T12:56:51.466Z,5.53
2022-09-25T12:59:46.163Z,6.05
2022-09-25T13:02:31.291Z,7.53
2022-09-25T13:05:08.045Z,7.80
2022-09-25T13:07:54.714Z,6.60
2022-09-25T13:10:30.772Z,5.85
2022-09-25T13:13:02.790Z,4.63
2022-09-25T13:15:34.416Z,5.78
2022-09-25T13:18:05.445Z,6.18
2022-09-25T13:20:38.696Z,4.97
2022-09-25T13:23:12.439Z,14.93
2022-09-25T13:25:46.084Z,4.95
2022-09-25T13:28:23.922Z,5.40
2022-09-25T13:31:08.871Z,5.40
2022-09-25T13:34:10.519Z,4.10
2022-09-25T13:36:42.607Z,4.15
2022-09-25T13:39:46.849Z,3.60
2022-09-25T13:42:47.355Z,5.88
2022-09-25T13:45:35.374Z,5.70
2022-09-25T13:48:13.714Z,6.78
2022-09-25T13:50:47.209Z,5.25
2022-09-25T13:53:24.756Z,6.80
2022-09-25T13:56:01.650Z,7.82
2022-09-25T13:58:35.133Z,5.40
2022-09-25T14:01:19.892Z,5.47
2022-09-25T14:03:51.120Z,7.45
2022-09-25T14:06:26.815Z,6.32
2022-09-25T14:08:56.894Z,7.45
2022-09-25T14:11:32.350Z,6.85
2022-09-25T14:14:02.840Z,8.20
2022-09-25T14:16:55.514Z,9.95
2022-09-25T14:19:37.562Z,8.82
2022-09-25T14:22:06.947Z,7.75
2022-09-25T14:24:35.782Z,9.90
2022-09-25T14:27:03.698Z,8.07
2022-09-25T14:29:41.788Z,6.13
2022-09-25T14:32:56.501Z,8.23
2022-09-25T14:35:31.872Z,10.70
2022-09-25T14:38:26.368Z,7.28
2022-09-25T14:41:24.514Z,7.60
2022-09-25T14:44:01.227Z,8.98
2022-09-25T14:46:29.300Z,7.72
2022-09-25T14:49:07.687Z,7.43
2022-09-25T14:51:48.912Z,7.70
2022-09-25T14:54:26.703Z,9.98
2022-09-25T14:57:03.221Z,8.13
2022-09-25T14:59:47.498Z,7.72
2022-09-25T15:06:03.649Z,8.18
2022-09-25T15:08:41.699Z,9.52
2022-09-25T15:11:21.093Z,8.60
2022-09-25T15:13:49.301Z,9.00
2022-09-25T15:17:02.292Z,7.18
2022-09-25T15:19:34.794Z,8.43
2022-09-25T15:22:02.942Z,7.35
2022-09-25T15:24:35.436Z,6.65
2022-09-25T15:27:07.296Z,6.75
2022-09-25T15:29:38.446Z,6.13
2022-09-25T15:32:06.929Z,7.28
2022-09-25T15:34:35.195Z,7.47
2022-09-25T15:37:17.090Z,7.78
2022-09-25T15:39:45.653Z,8.00
2022-09-25T15:42:15.267Z,7.35
2022-09-25T15:44:43.593Z,7.50
2022-09-25T15:47:35.521Z,8.65
2022-09-25T15:50:14.877Z,7.45
2022-09-25T15:52:42.800Z,9.52
2022-09-25T15:55:15.718Z,9.80
2022-09-25T15:57:43.923Z,7.97
2022-09-25T16:00:45.740Z,9.38
2022-09-25T16:03:37.600Z,9.45
2022-09-25T16:06:06.078Z,9.32
2022-09-25T16:08:35.706Z,10.98
2022-09-25T16:11:10.374Z,10.23
2022-09-25T16:13:43.146Z,10.80
2022-09-25T16:16:30.482Z,11.40
2022-09-25T16:19:22.670Z,12.57
2022-09-25T16:21:55.944Z,14.52
2022-09-25T16:24:31.512Z,14.32
2022-09-25T16:27:05.295Z,11.77
2022-09-25T16:29:37.145Z,12.70
2022-09-25T16:32:08.289Z,11.80
2022-09-25T16:34:41.463Z,12.32
2022-09-25T16:37:22.425Z,12.35
2022-09-25T16:40:10.698Z,10.85
2022-09-25T16:42:41.879Z,11.90
2022-09-25T16:45:15.924Z,12.75
2022-09-25T16:47:48.991Z,15.15
2022-09-25T16:50:19.082Z,19.80
2022-09-25T16:52:48.098Z,15.68
2022-09-25T16:55:25.524Z,14.48
2022-09-25T16:57:54.816Z,14.98
2022-09-25T17:00:28.616Z,15.73
2022-09-25T17:02:58.275Z,14.20
2022-09-25T17:05:28.881Z,17.80
2022-09-25T17:08:01.003Z,20.08
2022-09-25T17:10:32.746Z,20.45
2022-09-25T17:13:03.162Z,22.33
2022-09-25T17:15:35.045Z,19.75
2022-09-25T17:18:04.057Z,25.17
2022-09-25T17:20:35.316Z,24.23
2022-09-25T17:23:03.208Z,18.65
2022-09-25T17:25:44.318Z,16.38
2022-09-25T17:28:13.062Z,14.35
2022-09-25T17:30:41.756Z,13.73
2022-09-25T17:33:21.568Z,15.43
2022-09-25T17:35:54.195Z,14.35
2022-09-25T17:38:22.807Z,14.07
2022-09-25T17:40:54.895Z,12.93
2022-09-25T17:43:26.279Z,12.55
2022-09-25T17:48:36.329Z,10.90
2022-09-25T17:51:32.004Z,10.43
2022-09-25T17:54:04.277Z,9.57
2022-09-25T17:56:33.567Z,9.40
2022-09-25T17:59:08.409Z,8.63
2022-09-25T18:01:39.535Z,8.75
2022-09-25T18:06:53.802Z,6.60
2022-09-25T18:09:23.274Z,6.43
2022-09-25T18:14:29.035Z,8.40
2022-09-25T18:16:59.675Z,8.77
2022-09-25T18:19:46.160Z,8.75
2022-09-25T18:22:26.436Z,8.88
2022-09-25T18:24:58.915Z,9.35
2022-09-25T18:27:29.945Z,9.85
2022-09-25T18:29:57.864Z,9.30
2022-09-25T18:32:25.923Z,8.75
2022-09-25T18:34:54.013Z,9.82
2022-09-25T18:37:22.012Z,9.15
2022-09-25T18:39:50.110Z,9.32
2022-09-25T18:42:19.180Z,9.15
2022-09-25T18:44:47.188Z,9.68
2022-09-25T18:47:15.293Z,9.73
2022-09-25T18:49:44.171Z,8.43
2022-09-25T18:52:12.803Z,9.15
2022-09-25T18:54:43.125Z,8.38
2022-09-25T18:57:16.491Z,8.63
2022-09-25T18:59:49.804Z,10.52
2022-09-25T19:02:29.602Z,8.88
2022-09-25T19:04:58.876Z,7.45
2022-09-25T19:07:29.108Z,8.25
2022-09-25T19:09:59.360Z,9.18
2022-09-25T19:12:27.764Z,10.93
2022-09-25T19:14:55.775Z,10.43
2022-09-25T19:17:23.667Z,8.88
2022-09-25T19:19:51.641Z,8.73
2022-09-25T19:22:23.498Z,7.90
2022-09-25T19:24:52.315Z,9.68
2022-09-25T19:27:20.633Z,7.63
2022-09-25T19:29:48.598Z,8.95
2022-09-25T19:32:20.091Z,7.25
2022-09-25T19:37:16.315Z,7.72
2022-09-25T19:40:13.530Z,7.00
2022-09-25T19:42:46.568Z,7.15
2022-09-25T19:45:18.272Z,5.95
2022-09-25T19:47:46.357Z,8.63
2022-09-25T19:50:14.354Z,5.90
2022-09-25T19:52:42.321Z,8.07
2022-09-25T19:55:10.269Z,6.47
2022-09-25T19:57:38.146Z,6.85
2022-09-25T20:00:07.022Z,5.57
2022-09-25T20:02:36.870Z,6.57
2022-09-25T20:05:04.920Z,6.30
2022-09-25T20:07:32.826Z,5.75
2022-09-25T20:10:00.743Z,5.18
2022-09-25T20:12:28.671Z,5.07
2022-09-25T20:14:56.531Z,5.32
2022-09-25T20:17:24.394Z,4.90
2022-09-25T20:19:52.247Z,5.75
2022-09-25T20:22:20.106Z,4.38
2022-09-25T20:24:48.276Z,4.78
2022-09-25T20:27:19.833Z,6.40
2022-09-25T20:29:51.078Z,6.03
2022-09-25T20:32:21.217Z,5.10
2022-09-25T20:34:49.062Z,6.03
2022-09-25T20:37:16.894Z,6.40
2022-09-25T20:39:45.318Z,6.38
2022-09-25T20:42:13.159Z,6.10
2022-09-25T20:44:41.025Z,6.10
2022-09-25T20:47:09.324Z,5.80
2022-09-25T20:49:37.423Z,6.32
2022-09-25T20:52:05.633Z,5.90
2022-09-25T20:54:33.767Z,8.02
2022-09-25T20:57:01.715Z,6.47
2022-09-25T20:59:31.831Z,5.85
2022-09-25T21:01:59.873Z,7.35
2022-09-25T21:04:28.321Z,7.03
2022-09-25T21:06:56.266Z,7.25
2022-09-25T21:09:30.787Z,7.72
2022-09-25T21:11:59.550Z,7.95
2022-09-25T21:14:31.530Z,6.93
2022-09-25T21:17:02.587Z,7.05
2022-09-25T21:19:33.137Z,8.48
2022-09-25T21:22:01.017Z,7.30
2022-09-25T21:24:32.358Z,8.32
2022-09-25T21:27:00.232Z,6.70
2022-09-25T21:29:28.177Z,9.15
2022-09-25T21:31:56.413Z,6.65
2022-09-25T21:34:24.378Z,6.75
2022-09-25T21:36:52.255Z,7.57
2022-09-25T21:39:21.398Z,6.97
2022-09-25T21:41:49.562Z,8.38
2022-09-25T21:44:21.343Z,9.63
2022-09-25T21:46:49.273Z,8.98
2022-09-25T21:49:22.706Z,9.73
2022-09-25T21:51:51.092Z,9.23
2022-09-25T21:54:19.607Z,10.00
2022-09-25T21:56:48.358Z,12.48
2022-09-25T21:59:16.913Z,10.20
2022-09-25T22:01:45.685Z,9.02
2022-09-25T22:04:16.569Z,9.50
2022-09-25T22:06:47.278Z,9.38
2022-09-25T22:09:21.518Z,9.68
2022-09-25T22:11:50.155Z,9.52
2022-09-25T22:14:19.549Z,9.23
2022-09-25T22:16:50.645Z,10.82
2022-09-25T22:19:18.544Z,8.55
2022-09-25T22:21:48.684Z,8.35
2022-09-25T22:24:17.355Z,9.32
2022-09-25T22:26:51.142Z,11.25
2022-09-25T22:29:22.732Z,7.20
2022-09-25T22:31:51.069Z,10.45
2022-09-25T22:34:20.922Z,9.13
2022-09-25T22:36:52.465Z,6.35
2022-09-25T22:39:23.458Z,7.70
2022-09-25T22:41:54.122Z,7.63
2022-09-25T22:44:22.817Z,5.57
2022-09-25T22:46:50.981Z,6.32
2022-09-25T22:49:19.004Z,5.53
2022-09-25T22:51:46.918Z,6.93
2022-09-25T22:54:15.632Z,6.57
2022-09-25T22:56:44.635Z,7.13
2022-09-25T22:59:17.171Z,4.75
2022-09-25T23:01:53.985Z,4.72
2022-09-25T23:04:24.693Z,5.07
2022-09-25T23:06:53.180Z,4.80
2022-09-25T23:09:23.883Z,7.90
2022-09-25T23:11:51.776Z,7.05
2022-09-25T23:14:22.902Z,5.50
2022-09-25T23:16:52.861Z,5.45
2022-09-25T23:19:22.070Z,6.53
2022-09-25T23:21:51.692Z,5.35
2022-09-25T23:24:25.327Z,5.88
2022-09-25T23:26:57.147Z,9.00
2022-09-25T23:29:25.072Z,13.90
2022-09-25T23:31:53.291Z,8.48
2022-09-25T23:34:21.546Z,8.27
2022-09-25T23:36:49.661Z,5.70
2022-09-25T23:39:20.308Z,6.25
2022-09-25T23:41:48.440Z,5.90
2022-09-25T23:44:16.535Z,8.68
2022-09-25T23:46:45.274Z,7.97
2022-09-25T23:49:13.443Z,8.15
2022-09-25T23:51:41.586Z,9.00
2022-09-25T23:54:10.855Z,8.85
2022-09-25T23:56:40.174Z,13.25
2022-09-25T23:59:08.415Z,8.80
